Haleyville, Alabama
Current Conditions -  °F | °C
As of 8:13 PM on Monday 22 Dec 2014 (Local Time) from K1M4 Reporting Station
Haze Haze  
Wind Chill: 52°   Ceiling: 100
Heat Index: 52°   Visibility: 1.5mi
Dew Point: 52°   Wind: 13mph
Humidity: 100%   Direction: 150°SSE
Pressure: 29.77"   Gusts: 20mph
Location:  34.23°N, 87.62°W
Report Text: K1M4 230213Z AUTO 15011G17KT 1 1/2SM BR OVC001 11/11 A2977 RMK AO2 RAB05E06 P0000 $
Loading
Personal Weather Stations






























Interactive Weather Map New forecast layout! Learn more

10-Day Weather Forecast

Advertisements
Track Severe Weather on mobile